Time;durP1;ratioP1;P1;durP2;ratioP2;P2;SDS_P1;SDS_P2;PMS_P1;PMS_P2;Temp;Humidity;BMP_temperature;BMP_pressure;BME280_temperature;BME280_humidity;BME280_pressure;Samples;Min_cycle;Max_cycle;Signal;HPM_P1;HPM_P2
2024/02/15 00:00:12;;;;;;;30.65;10.90;;;;;;;1.29;100.00;100749.84;6295660;28;20055;-71
2024/02/15 00:03:13;;;;;;;22.95;11.75;;;;;;;1.25;100.00;100750.75;6275393;28;20052;-71
2024/02/15 00:06:14;;;;;;;20.98;11.20;;;;;;;1.12;100.00;100752.63;6277269;28;20059;-70
2024/02/15 00:09:15;;;;;;;23.77;10.50;;;;;;;1.13;100.00;100751.75;6280057;28;20053;-71
2024/02/15 00:12:15;;;;;;;27.02;11.35;;;;;;;1.08;100.00;100761.25;6291589;28;20052;-75
2024/02/15 00:15:16;;;;;;;20.13;11.38;;;;;;;1.08;100.00;100763.81;6279158;28;20470;-76
2024/02/15 00:18:18;;;;;;;30.52;13.93;;;;;;;1.00;100.00;100761.31;6281825;28;20085;-76
2024/02/15 00:21:19;;;;;;;28.23;12.83;;;;;;;0.97;100.00;100758.78;6285991;28;20139;-76
2024/02/15 00:24:19;;;;;;;23.77;12.70;;;;;;;0.93;100.00;100760.53;6271340;28;20048;-76
2024/02/15 00:27:21;;;;;;;25.08;12.70;;;;;;;0.89;100.00;100760.59;6288255;28;20556;-70
2024/02/15 00:30:24;;;;;;;27.20;12.90;;;;;;;0.95;100.00;100770.81;6282013;28;20125;-70
2024/02/15 00:33:28;;;;;;;28.85;14.50;;;;;;;0.94;100.00;100769.09;6293882;28;20059;-70
2024/02/15 00:36:29;;;;;;;26.42;13.10;;;;;;;0.89;100.00;100763.16;6285189;28;20169;-70
2024/02/15 00:39:31;;;;;;;43.53;13.68;;;;;;;0.80;100.00;100771.78;6276582;28;20056;-70
2024/02/15 00:42:32;;;;;;;41.40;18.00;;;;;;;0.76;100.00;100770.97;6284956;28;20063;-70
2024/02/15 00:45:32;;;;;;;35.05;17.10;;;;;;;0.70;100.00;100765.00;6287455;28;20056;-70
2024/02/15 00:48:36;;;;;;;41.92;18.52;;;;;;;0.67;100.00;100770.19;6283478;28;20050;-70
2024/02/15 00:51:40;;;;;;;33.20;16.88;;;;;;;0.77;100.00;100764.97;6290533;28;20059;-70
2024/02/15 00:54:41;;;;;;;37.85;16.35;;;;;;;0.76;100.00;100763.28;6282667;28;20136;-69
2024/02/15 00:57:42;;;;;;;28.45;15.60;;;;;;;0.71;100.00;100765.00;6271780;28;20049;-69
2024/02/15 01:00:43;;;;;;;43.25;17.25;;;;;;;0.72;100.00;100764.16;6271247;28;20052;-70
2024/02/15 01:03:43;;;;;;;37.90;16.27;;;;;;;0.72;100.00;100771.00;6271237;28;20128;-70
2024/02/15 01:06:45;;;;;;;40.75;19.15;;;;;;;0.60;100.00;100762.53;6278362;28;20135;-69
2024/02/15 01:09:45;;;;;;;46.50;18.80;;;;;;;0.65;100.00;100759.94;6270935;28;20053;-69
2024/02/15 01:12:46;;;;;;;47.25;15.70;;;;;;;0.71;100.00;100757.31;6282364;28;20089;-70
2024/02/15 01:15:47;;;;;;;46.90;16.25;;;;;;;0.71;100.00;100753.91;6282495;28;20053;-70
2024/02/15 01:18:48;;;;;;;44.88;15.98;;;;;;;0.69;100.00;100753.06;6271853;28;20048;-69
2024/02/15 01:21:49;;;;;;;43.63;14.15;;;;;;;0.73;100.00;100759.88;6276461;28;20077;-70
2024/02/15 01:24:52;;;;;;;41.00;14.82;;;;;;;0.72;100.00;100747.88;6283486;28;20063;-70
2024/02/15 01:27:55;;;;;;;34.72;14.23;;;;;;;0.71;100.00;100752.16;6274844;28;20045;-70
2024/02/15 01:30:57;;;;;;;33.08;14.07;;;;;;;0.64;100.00;100744.53;6288567;28;20065;-70
2024/02/15 01:33:57;;;;;;;31.95;14.15;;;;;;;0.57;100.00;100752.28;6272081;28;20059;-69
2024/02/15 01:36:58;;;;;;;33.92;11.55;;;;;;;0.51;100.00;100748.94;6283127;28;20111;-70
2024/02/15 01:40:02;;;;;;;28.08;11.23;;;;;;;0.51;100.00;100739.50;6275553;28;20092;-71
2024/02/15 01:43:03;;;;;;;31.15;12.63;;;;;;;0.49;100.00;100737.81;6275849;28;20053;-70
2024/02/15 01:46:11;;;;;;;29.92;13.27;;;;;;;0.46;100.00;100743.00;6276858;28;20102;-75
2024/02/15 01:49:12;;;;;;;26.63;13.80;;;;;;;0.51;100.00;100743.78;6275049;28;20045;-75
2024/02/15 01:52:13;;;;;;;31.95;13.35;;;;;;;0.52;100.00;100742.94;6278898;28;20095;-76
2024/02/15 01:55:17;;;;;;;34.08;12.88;;;;;;;0.48;100.00;100741.25;6275685;28;20048;-75
2024/02/15 01:58:18;;;;;;;32.33;13.50;;;;;;;0.40;100.00;100744.72;6281136;28;20060;-75
2024/02/15 02:01:22;;;;;;;47.13;18.10;;;;;;;0.32;100.00;100732.81;6271636;28;20045;-75
2024/02/15 02:04:23;;;;;;;41.47;15.90;;;;;;;0.35;100.00;100736.22;6273279;28;20298;-75
2024/02/15 02:07:24;;;;;;;47.83;18.20;;;;;;;0.32;100.00;100735.41;6272150;28;20494;-75
2024/02/15 02:10:27;;;;;;;45.42;16.60;;;;;;;0.44;100.00;100734.44;6273544;28;20138;-75
2024/02/15 02:13:30;;;;;;;29.95;14.75;;;;;;;0.42;100.00;100726.75;6284420;28;20134;-75
2024/02/15 02:16:32;;;;;;;35.83;15.18;;;;;;;0.43;100.00;100732.72;6281632;28;20131;-75
2024/02/15 02:19:33;;;;;;;40.57;17.47;;;;;;;0.37;100.00;100733.63;6287374;28;20064;-75
2024/02/15 02:22:37;;;;;;;45.53;17.67;;;;;;;0.36;100.00;100731.94;6287142;28;20659;-75
2024/02/15 02:25:38;;;;;;;47.80;19.25;;;;;;;0.30;100.00;100739.69;6296337;28;20075;-75
2024/02/15 02:28:42;;;;;;;48.83;21.25;;;;;;;0.31;100.00;100736.25;6297229;28;20062;-75
2024/02/15 02:31:42;;;;;;;43.85;20.50;;;;;;;0.27;100.00;100739.69;6290317;28;20060;-75
2024/02/15 02:34:44;;;;;;;46.75;20.55;;;;;;;0.20;100.00;100739.75;6293192;28;20075;-75
2024/02/15 02:37:46;;;;;;;42.97;20.35;;;;;;;0.17;100.00;100733.81;6283149;28;20057;-75
2024/02/15 02:40:49;;;;;;;63.88;23.80;;;;;;;0.10;100.00;100729.56;6292490;28;20052;-75
2024/02/15 02:43:50;;;;;;;48.40;20.67;;;;;;;0.13;100.00;100742.38;6297246;28;20040;-75
2024/02/15 02:46:50;;;;;;;46.63;20.25;;;;;;;0.07;100.00;100747.56;6299523;28;20502;-75
2024/02/15 02:49:51;;;;;;;50.97;21.50;;;;;;;0.06;100.00;100739.00;6297757;28;20178;-75
2024/02/15 02:52:52;;;;;;;42.67;20.58;;;;;;;0.03;100.00;100738.19;6298249;28;20041;-75
2024/02/15 02:55:56;;;;;;;53.03;20.60;;;;;;;0.08;100.00;100738.97;6295362;28;20059;-75
2024/02/15 02:58:56;;;;;;;44.30;19.55;;;;;;;0.15;100.00;100746.63;6273942;28;20491;-69
2024/02/15 03:01:57;;;;;;;53.22;20.15;;;;;;;0.15;100.00;100746.63;6284542;28;20131;-70
2024/02/15 03:05:01;;;;;;;47.67;20.55;;;;;;;0.13;100.00;100747.53;6298639;28;20496;-70
2024/02/15 03:08:02;;;;;;;49.33;21.48;;;;;;;0.09;100.00;100743.28;6277075;28;20454;-69
2024/02/15 03:11:05;;;;;;;40.50;19.25;;;;;;;0.09;100.00;100744.13;6273982;28;20109;-75
2024/02/15 03:14:07;;;;;;;46.13;19.42;;;;;;;0.07;100.00;100745.84;6290073;28;20452;-75
2024/02/15 03:17:10;;;;;;;50.72;18.77;;;;;;;0.00;100.00;100759.59;6273805;28;20087;-76
2024/02/15 03:20:21;;;;;;;59.63;20.33;;;;;;;-0.04;100.00;100748.47;6279072;28;20049;-70
2024/02/15 03:23:22;;;;;;;39.03;18.20;;;;;;;-0.08;100.00;100761.34;6298449;28;20410;-70
2024/02/15 03:26:36;;;;;;;39.35;16.15;;;;;;;-0.09;100.00;100765.59;6292220;28;20087;-75
2024/02/15 03:29:37;;;;;;;37.78;17.30;;;;;;;-0.06;100.00;100765.59;6283400;28;20063;-75
2024/02/15 03:32:38;;;;;;;43.28;18.90;;;;;;;-0.09;100.00;100763.03;6289871;28;20048;-75
2024/02/15 03:35:39;;;;;;;41.80;17.88;;;;;;;-0.15;100.00;100770.78;6285489;28;20183;-70
2024/02/15 03:38:41;;;;;;;43.15;19.25;;;;;;;-0.12;100.00;100770.75;6286839;28;20070;-70
2024/02/15 03:41:42;;;;;;;45.28;19.15;;;;;;;-0.03;100.00;100765.56;6276773;28;20136;-69
2024/02/15 03:44:42;;;;;;;39.50;17.77;;;;;;;-0.05;100.00;100767.28;6280598;28;20049;-70
2024/02/15 03:47:43;;;;;;;35.00;17.38;;;;;;;-0.09;100.00;100769.88;6273774;28;20405;-70
2024/02/15 03:50:48;;;;;;;30.10;16.60;;;;;;;-0.13;100.00;100773.34;6272414;28;20148;-75
2024/02/15 03:53:48;;;;;;;39.03;15.18;;;;;;;-0.20;100.00;100772.53;6277342;28;20091;-75
2024/02/15 03:56:52;;;;;;;29.45;13.95;;;;;;;-0.22;100.00;100782.78;6288001;28;20403;-75
2024/02/15 03:59:54;;;;;;;36.08;16.52;;;;;;;-0.27;100.00;100770.84;6278239;28;20506;-75
2024/02/15 04:02:57;;;;;;;33.05;15.82;;;;;;;-0.23;100.00;100772.53;6292457;28;20411;-75
2024/02/15 04:05:58;;;;;;;31.65;15.73;;;;;;;-0.25;100.00;100780.25;6291649;28;20053;-75
2024/02/15 04:08:59;;;;;;;31.33;14.45;;;;;;;-0.24;100.00;100768.28;6288750;28;20052;-75
2024/02/15 04:12:00;;;;;;;28.58;14.75;;;;;;;-0.32;100.00;100763.16;6283964;28;20041;-75
2024/02/15 04:15:07;;;;;;;28.35;15.13;;;;;;;-0.31;100.00;100769.13;6284759;28;20053;-75
2024/02/15 04:18:08;;;;;;;28.40;16.23;;;;;;;-0.30;100.00;100765.72;6277338;28;20085;-70
2024/02/15 04:21:09;;;;;;;40.28;15.60;;;;;;;-0.37;100.00;100767.47;6280419;28;20055;-70
2024/02/15 04:24:12;;;;;;;33.33;15.98;;;;;;;-0.39;100.00;100764.06;6280299;28;20041;-70
2024/02/15 04:27:13;;;;;;;30.75;15.45;;;;;;;-0.33;100.00;100776.88;6275840;28;20057;-69
2024/02/15 04:30:15;;;;;;;30.48;14.55;;;;;;;-0.32;100.00;100776.00;6278117;28;20099;-71
2024/02/15 04:33:16;;;;;;;33.63;16.37;;;;;;;-0.30;100.00;100771.72;6286556;28;20646;-70
2024/02/15 04:36:23;;;;;;;29.92;15.20;;;;;;;-0.31;100.00;100774.28;6275940;28;20060;-70
2024/02/15 04:39:24;;;;;;;32.25;17.45;;;;;;;-0.36;100.00;100768.31;6286340;28;20744;-75
2024/02/15 04:42:26;;;;;;;28.77;14.00;;;;;;;-0.42;100.00;100775.16;6292665;28;20144;-70
2024/02/15 04:45:27;;;;;;;;;;;;;;;-0.48;100.00;100766.66;6286453;28;20483;-70
2024/02/15 04:48:30;;;;;;;28.45;13.73;;;;;;;-0.50;100.00;100766.66;6277740;28;19921;-70
2024/02/15 04:51:31;;;;;;;27.63;14.73;;;;;;;-0.50;100.00;100781.19;6291289;28;20048;-70
2024/02/15 04:54:33;;;;;;;26.50;13.00;;;;;;;-0.52;100.00;100776.06;6296230;28;20052;-70
2024/02/15 04:57:37;;;;;;;30.45;14.00;;;;;;;-0.52;100.00;100780.34;6284921;28;20392;-70
2024/02/15 05:00:37;;;;;;;30.38;14.15;;;;;;;-0.53;100.00;100774.38;6274276;28;20061;-76
2024/02/15 05:03:38;;;;;;;30.55;13.60;;;;;;;-0.50;100.00;100783.75;6304064;28;20052;-75
2024/02/15 05:06:40;;;;;;;27.63;14.27;;;;;;;-0.50;100.00;100787.16;6270678;28;20053;-75
2024/02/15 05:09:40;;;;;;;26.63;13.70;;;;;;;-0.45;100.00;100779.47;6270721;28;20053;-75
2024/02/15 05:12:44;;;;;;;28.95;14.55;;;;;;;-0.46;100.00;100790.59;6272588;28;20056;-75
2024/02/15 05:15:45;;;;;;;22.45;11.90;;;;;;;-0.38;100.00;100799.09;6269841;28;20057;-75
2024/02/15 05:18:46;;;;;;;21.30;12.48;;;;;;;-0.47;100.00;100794.03;6269697;28;20083;-76
2024/02/15 05:21:47;;;;;;;21.83;12.13;;;;;;;-0.49;100.00;100795.75;6271008;28;20064;-75
2024/02/15 05:24:48;;;;;;;27.83;15.15;;;;;;;-0.61;100.00;100794.91;6270868;28;20060;-75
2024/02/15 05:27:49;;;;;;;33.80;16.63;;;;;;;-0.57;100.00;100792.34;6269852;28;20049;-75
2024/02/15 05:30:50;;;;;;;25.77;13.90;;;;;;;-0.64;100.00;100792.38;6274791;28;20060;-75
2024/02/15 05:33:52;;;;;;;22.85;13.25;;;;;;;-0.56;100.00;100791.47;6287184;28;20491;-75
2024/02/15 05:36:52;;;;;;;27.85;15.80;;;;;;;-0.55;100.00;100793.19;6282662;28;20055;-75
2024/02/15 05:39:53;;;;;;;29.45;15.68;;;;;;;-0.61;100.00;100801.75;6285451;28;20084;-75
2024/02/15 05:42:58;;;;;;;33.83;17.20;;;;;;;-0.63;100.00;100793.22;6269569;28;20403;-75
2024/02/15 05:45:59;;;;;;;32.90;16.30;;;;;;;-0.57;100.00;100800.03;6292543;28;20049;-75
2024/02/15 05:49:02;;;;;;;32.67;16.13;;;;;;;-0.55;100.00;100808.56;6282028;28;20060;-75
2024/02/15 05:52:03;;;;;;;30.48;14.60;;;;;;;-0.50;100.00;100812.81;6278546;28;20037;-76
2024/02/15 05:55:04;;;;;;;30.60;14.65;;;;;;;-0.50;100.00;100801.72;6294910;28;20418;-70
2024/02/15 05:58:09;;;;;;;25.55;14.85;;;;;;;-0.43;100.00;100806.81;6291191;28;20063;-70
2024/02/15 06:01:12;;;;;;;24.13;14.15;;;;;;;-0.34;100.00;100817.91;6293564;28;20048;-71
2024/02/15 06:04:13;;;;;;;30.33;13.63;;;;;;;-0.33;100.00;100819.59;6293261;28;20055;-71
2024/02/15 06:07:18;;;;;;;26.73;12.52;;;;;;;-0.33;100.00;100815.34;6293929;28;20048;-70
2024/02/15 06:10:19;;;;;;;25.83;13.65;;;;;;;-0.25;100.00;100817.84;6297813;28;20055;-70
2024/02/15 06:13:20;;;;;;;23.75;14.02;;;;;;;-0.15;100.00;100829.78;6298920;28;20102;-71
2024/02/15 06:16:21;;;;;;;26.60;14.13;;;;;;;-0.10;100.00;100822.06;6298088;28;20406;-70
2024/02/15 06:19:22;;;;;;;28.05;13.50;;;;;;;-0.09;100.00;100832.31;6299211;28;20689;-70
2024/02/15 06:22:24;;;;;;;24.73;13.20;;;;;;;-0.04;100.00;100838.28;6297996;28;20051;-70
2024/02/15 06:25:25;;;;;;;32.63;13.02;;;;;;;0.01;100.00;100837.41;6297881;28;20084;-70
2024/02/15 06:41:43;;;;;;;24.85;12.30;;;;;;;0.47;100.00;100857.66;6298729;28;20045;-75
2024/02/15 06:44:46;;;;;;;24.08;12.68;;;;;;;0.62;100.00;100849.00;6298807;28;20087;-75
2024/02/15 06:47:49;;;;;;;19.88;11.25;;;;;;;0.79;100.00;100850.56;6297478;28;20052;-75
2024/02/15 06:50:50;;;;;;;22.80;11.40;;;;;;;0.92;100.00;100859.03;6297558;28;20048;-70
2024/02/15 06:53:57;;;;;;;23.10;12.65;;;;;;;1.06;100.00;100858.06;6297341;28;20214;-70
2024/02/15 06:56:57;;;;;;;24.80;11.43;;;;;;;1.11;100.00;100854.59;6298311;28;20089;-75
2024/02/15 06:59:58;;;;;;;24.48;12.73;;;;;;;1.20;100.00;100854.50;6297157;28;20482;-75
2024/02/15 07:02:59;;;;;;;23.25;11.73;;;;;;;1.36;100.00;100859.47;6297071;28;20498;-75
2024/02/15 07:06:00;;;;;;;23.33;12.30;;;;;;;1.40;100.00;100849.16;6296904;28;20121;-75
2024/02/15 07:09:01;;;;;;;25.35;12.15;;;;;;;1.60;100.00;100861.78;6298017;28;20476;-75
2024/02/15 07:12:02;;;;;;;29.63;12.27;;;;;;;1.72;100.00;100852.25;6296838;28;20394;-75
2024/02/15 07:15:06;;;;;;;33.88;12.15;;;;;;;1.77;100.00;100868.47;6296640;28;20053;-76
2024/02/15 07:18:07;;;;;;;26.48;12.10;;;;;;;1.91;100.00;100852.84;6297651;28;20048;-76
2024/02/15 07:21:13;;;;;;;28.27;12.30;;;;;;;1.94;100.00;100858.84;6296688;28;20127;-76
2024/02/15 07:24:14;;;;;;;23.75;12.27;;;;;;;2.05;100.00;100858.69;6297756;28;20550;-76
2024/02/15 07:27:15;;;;;;;26.58;11.95;;;;;;;2.29;100.00;100862.66;6297551;28;20097;-76
2024/02/15 07:30:16;;;;;;;28.35;15.38;;;;;;;2.37;100.00;100863.41;6296101;28;20139;-76
2024/02/15 07:33:17;;;;;;;24.67;12.90;;;;;;;2.55;100.00;100858.84;6296204;28;20498;-76
2024/02/15 07:36:22;;;;;;;22.48;12.27;;;;;;;2.57;100.00;100862.25;6297240;28;20528;-75
2024/02/15 07:39:24;;;;;;;21.05;12.48;;;;;;;2.78;100.00;100855.91;6297477;28;20091;-76
2024/02/15 07:42:25;;;;;;;25.48;12.43;;;;;;;2.95;100.00;100868.53;6297277;28;20056;-75
2024/02/15 07:45:28;;;;;;;22.00;12.35;;;;;;;2.97;100.00;100859.91;6297558;28;20187;-75
2024/02/15 07:48:29;;;;;;;22.15;12.18;;;;;;;3.28;99.82;100853.38;6297243;28;20503;-75
2024/02/15 07:51:32;;;;;;;18.65;10.57;;;;;;;3.33;98.11;100859.28;6295927;28;20048;-76
2024/02/15 07:54:33;;;;;;;17.15;10.10;;;;;;;3.65;97.65;100860.41;6295810;28;20540;-70
2024/02/15 07:57:34;;;;;;;20.10;9.02;;;;;;;3.71;96.03;100857.72;6295836;28;20056;-70
2024/02/15 08:00:35;;;;;;;21.35;12.20;;;;;;;3.83;95.30;100855.72;6295858;28;20079;-70
2024/02/15 08:03:36;;;;;;;20.02;9.40;;;;;;;4.03;94.14;100854.44;6296619;28;20468;-70
2024/02/15 08:06:38;;;;;;;16.60;9.02;;;;;;;3.95;91.92;100854.59;6295636;28;20482;-70
2024/02/15 08:09:41;;;;;;;18.92;9.95;;;;;;;4.23;91.64;100856.63;6295540;28;20045;-75
2024/02/15 08:12:43;;;;;;;17.60;8.95;;;;;;;4.42;88.85;100859.63;6296685;28;20094;-76
2024/02/15 08:15:46;;;;;;;25.25;9.95;;;;;;;4.55;88.74;100848.16;6295267;28;20109;-76
2024/02/15 08:18:52;;;;;;;16.50;9.75;;;;;;;5.17;88.08;100847.47;6296726;28;20045;-76
2024/02/15 08:21:56;;;;;;;17.90;9.15;;;;;;;5.50;86.12;100856.94;6296455;28;20102;-76
2024/02/15 08:24:56;;;;;;;18.67;9.75;;;;;;;5.63;86.12;100858.34;6296287;28;20071;-75
2024/02/15 08:27:57;;;;;;;15.45;7.55;;;;;;;5.55;84.63;100861.13;6296196;28;20480;-76
2024/02/15 08:30:58;;;;;;;17.05;8.40;;;;;;;5.77;85.19;100861.38;6295500;28;20056;-75
2024/02/15 08:34:00;;;;;;;26.20;11.35;;;;;;;5.82;84.82;100861.25;6296249;28;20063;-75
2024/02/15 08:37:04;;;;;;;19.42;9.77;;;;;;;5.96;86.89;100863.47;6294365;28;20044;-76
2024/02/15 08:40:11;;;;;;;18.45;10.13;;;;;;;5.94;86.44;100868.66;6294827;28;20486;-76
2024/02/15 08:43:17;;;;;;;21.17;10.55;;;;;;;5.84;85.08;100872.41;6295900;28;20080;-71
2024/02/15 08:46:19;;;;;;;26.40;13.27;;;;;;;5.81;85.81;100867.34;6294998;28;20083;-75
2024/02/15 08:49:22;;;;;;;18.95;10.98;;;;;;;6.09;85.03;100872.56;6295951;28;20129;-76
2024/02/15 08:52:23;;;;;;;19.73;9.45;;;;;;;6.33;84.59;100862.38;6294861;28;20045;-76
2024/02/15 08:55:26;;;;;;;19.10;9.93;;;;;;;6.43;81.10;100869.00;6295822;28;20411;-76
2024/02/15 08:58:27;;;;;;;27.92;13.05;;;;;;;6.65;80.42;100871.75;6295958;28;20049;-76
2024/02/15 09:01:28;;;;;;;16.13;9.77;;;;;;;6.80;80.26;100871.25;6294734;28;20103;-76
2024/02/15 09:04:29;;;;;;;25.77;13.35;;;;;;;6.85;79.57;100873.69;6294628;28;20052;-76
2024/02/15 09:07:32;;;;;;;21.88;10.45;;;;;;;7.14;79.64;100867.53;6294561;28;20044;-76
2024/02/15 09:10:33;;;;;;;17.40;11.05;;;;;;;7.22;78.70;100886.31;6295902;28;20051;-76
2024/02/15 09:13:37;;;;;;;18.90;9.13;;;;;;;7.32;78.14;100891.19;6294621;28;20053;-76
2024/02/15 09:16:39;;;;;;;20.95;10.18;;;;;;;7.50;78.27;100889.72;6295452;28;20418;-76
2024/02/15 09:19:41;;;;;;;19.17;9.63;;;;;;;7.50;75.98;100887.13;6295956;28;20187;-76
2024/02/15 09:22:51;;;;;;;25.52;10.45;;;;;;;7.66;75.01;100896.06;6294393;28;20084;-76
2024/02/15 09:25:52;;;;;;;17.15;8.75;;;;;;;7.80;74.21;100895.56;6294482;28;20507;-76
2024/02/15 09:28:53;;;;;;;20.90;8.85;;;;;;;8.00;74.12;100889.66;6294003;28;20057;-76
2024/02/15 09:31:54;;;;;;;15.27;8.52;;;;;;;8.26;73.08;100889.53;6295566;28;20044;-76
2024/02/15 09:34:57;;;;;;;14.52;7.70;;;;;;;8.19;71.32;100892.41;6294262;28;20746;-76
2024/02/15 09:37:58;;;;;;;20.13;9.05;;;;;;;8.52;70.78;100890.28;6295283;28;20406;-75
2024/02/15 09:40:58;;;;;;;92.30;36.92;;;;;;;8.65;70.85;100890.69;6295554;28;20055;-76
2024/02/15 09:44:01;;;;;;;44.60;20.27;;;;;;;8.77;68.34;100892.78;6300402;28;20056;-75
2024/02/15 09:47:05;;;;;;;;;;;;;;;8.71;68.86;100897.38;6300563;28;20048;-75
2024/02/15 09:50:14;;;;;;;16.30;8.27;;;;;;;8.90;69.60;100887.09;6300053;28;19920;-70
2024/02/15 09:53:15;;;;;;;16.85;8.50;;;;;;;8.97;68.96;100891.13;6300134;28;20170;-70
2024/02/15 09:56:18;;;;;;;14.50;7.22;;;;;;;8.97;68.85;100886.75;6298581;28;20425;-70
2024/02/15 09:59:19;;;;;;;12.68;6.75;;;;;;;8.88;67.19;100893.19;6299931;28;20052;-71
2024/02/15 10:02:21;;;;;;;16.48;7.75;;;;;;;8.99;68.08;100890.13;6299800;28;20052;-71
2024/02/15 10:05:22;;;;;;;15.30;7.60;;;;;;;9.20;68.42;100895.38;6298768;28;20064;-70
2024/02/15 10:08:24;;;;;;;14.18;6.88;;;;;;;9.38;66.65;100891.16;6299663;28;20274;-71
2024/02/15 10:11:25;;;;;;;11.50;6.97;;;;;;;9.52;66.60;100878.38;6298312;28;20497;-70
2024/02/15 10:14:28;;;;;;;13.32;7.28;;;;;;;9.76;66.30;100880.81;6298239;28;20152;-71
2024/02/15 10:17:35;;;;;;;10.45;6.13;;;;;;;9.67;63.89;100871.63;6298362;28;20078;-70
2024/02/15 10:20:38;;;;;;;12.95;6.53;;;;;;;9.73;64.95;100862.72;6299315;28;20483;-71
2024/02/15 10:23:38;;;;;;;9.10;5.43;;;;;;;9.57;62.72;100867.75;6299884;28;20084;-71
2024/02/15 10:26:39;;;;;;;13.98;6.47;;;;;;;9.54;62.30;100870.50;6297944;28;20101;-70
2024/02/15 10:29:42;;;;;;;9.02;6.20;;;;;;;9.72;63.38;100871.44;6297888;28;20139;-75
2024/02/15 10:32:44;;;;;;;10.98;6.22;;;;;;;10.08;62.23;100868.94;6299135;28;20054;-75
2024/02/15 10:35:45;;;;;;;12.57;6.15;;;;;;;10.19;61.69;100861.47;6297791;28;20052;-76
2024/02/15 10:38:46;;;;;;;12.05;6.55;;;;;;;10.16;61.84;100866.81;6297986;28;20567;-76
2024/02/15 10:41:52;;;;;;;13.45;6.78;;;;;;;10.27;62.86;100861.09;6297798;28;20067;-75
2024/02/15 10:44:53;;;;;;;14.27;7.18;;;;;;;10.50;62.86;100867.91;6297859;28;20048;-76
2024/02/15 10:47:54;;;;;;;15.40;7.00;;;;;;;10.27;62.79;100864.56;6297483;28;20519;-76
2024/02/15 10:51:08;;;;;;;13.35;6.70;;;;;;;10.59;62.39;100857.00;6298759;28;20110;-76
2024/02/15 10:54:15;;;;;;;14.13;6.75;;;;;;;10.63;61.65;100855.09;6296721;28;20055;-76
2024/02/15 10:57:21;;;;;;;11.85;6.70;;;;;;;11.02;60.47;100847.06;6297470;28;20131;-76
2024/02/15 11:00:31;;;;;;;13.52;6.63;;;;;;;10.80;60.18;100836.81;6297254;28;20066;-76
2024/02/15 11:03:56;;;;;;;13.50;7.07;;;;;;;11.01;60.58;100829.69;6297426;28;20099;-76
2024/02/15 11:07:01;;;;;;;13.55;7.25;;;;;;;10.98;59.05;100829.00;6297308;28;20581;-76
2024/02/15 11:10:08;;;;;;;13.63;7.00;;;;;;;10.74;58.24;100825.84;6298400;28;20079;-75
2024/02/15 11:13:09;;;;;;;11.85;6.53;;;;;;;11.01;60.21;100827.06;6298006;28;20127;-76
2024/02/15 11:16:10;;;;;;;14.27;6.00;;;;;;;11.12;58.73;100834.38;6296872;28;20052;-75
2024/02/15 11:19:31;;;;;;;10.52;5.63;;;;;;;11.31;57.62;100826.44;6297827;28;20411;-76
2024/02/15 11:22:32;;;;;;;8.13;5.00;;;;;;;11.46;58.21;100827.41;6297786;28;20066;-75
2024/02/15 11:25:34;;;;;;;12.55;5.90;;;;;;;11.53;56.22;100823.56;6296798;28;20053;-75
2024/02/15 11:28:36;;;;;;;9.75;5.63;;;;;;;11.58;57.25;100818.91;6296231;28;20498;-76
2024/02/15 11:31:54;;;;;;;12.30;6.28;;;;;;;11.51;57.46;100812.34;6297515;28;20479;-75
2024/02/15 11:35:13;;;;;;;11.05;6.18;;;;;;;11.86;57.10;100818.28;6297730;28;20056;-76
2024/02/15 11:38:27;;;;;;;13.43;5.88;;;;;;;11.94;57.65;100810.03;6296158;28;20071;-76
2024/02/15 11:41:29;;;;;;;8.35;5.63;;;;;;;11.99;55.55;100805.41;6296354;28;20055;-76
2024/02/15 11:44:32;;;;;;;10.25;5.30;;;;;;;11.75;54.28;100801.50;6296132;28;20048;-75
2024/02/15 11:47:37;;;;;;;8.20;5.40;;;;;;;11.88;55.68;100805.13;6296138;28;20051;-76
2024/02/15 11:50:42;;;;;;;18.23;8.55;;;;;;;11.98;54.59;100797.66;6296233;28;20102;-71
2024/02/15 11:53:43;;;;;;;14.07;7.97;;;;;;;11.98;55.13;100792.41;6295845;28;20507;-70
2024/02/15 11:56:44;;;;;;;9.18;5.57;;;;;;;11.85;53.68;100800.06;6296981;28;20074;-71
2024/02/15 12:00:12;;;;;;;9.73;5.88;;;;;;;12.03;54.58;100793.84;6295950;28;20057;-70
2024/02/15 12:20:07;;;;;;;9.35;5.53;;;;;;;12.56;51.22;100786.53;6296784;28;20049;-71
2024/02/15 12:23:09;;;;;;;9.70;5.50;;;;;;;12.30;51.93;100781.00;6295593;28;20040;-71
2024/02/15 12:26:10;;;;;;;9.27;5.10;;;;;;;12.44;50.58;100771.53;6296447;28;20052;-71
2024/02/15 12:29:12;;;;;;;7.60;4.82;;;;;;;12.49;50.53;100767.69;6295386;28;20327;-70
2024/02/15 12:32:20;;;;;;;14.48;5.07;;;;;;;12.46;51.36;100765.28;6295140;28;20048;-71
2024/02/15 12:35:23;;;;;;;12.05;4.70;;;;;;;12.34;51.36;100759.91;6295271;28;20049;-71
2024/02/15 12:38:25;;;;;;;9.38;4.63;;;;;;;12.28;51.01;100753.25;6296078;28;20514;-71
2024/02/15 12:41:26;;;;;;;7.57;4.95;;;;;;;12.30;50.12;100757.44;6296351;28;20052;-70
2024/02/15 12:44:32;;;;;;;8.65;5.20;;;;;;;12.37;51.75;100757.09;6296087;28;20052;-70
2024/02/15 12:47:35;;;;;;;11.38;5.28;;;;;;;12.68;50.34;100756.16;6296348;28;20078;-70
2024/02/15 12:50:36;;;;;;;11.27;4.82;;;;;;;12.55;50.58;100742.94;6294821;28;20051;-71
2024/02/15 12:53:37;;;;;;;8.77;4.40;;;;;;;12.60;51.05;100742.69;6294972;28;20049;-70
2024/02/15 12:56:39;;;;;;;9.27;4.85;;;;;;;12.47;51.39;100746.00;6296026;28;20105;-71
2024/02/15 12:59:42;;;;;;;9.07;5.07;;;;;;;12.56;50.21;100746.41;6294930;28;20087;-70
2024/02/15 13:02:49;;;;;;;7.78;4.57;;;;;;;12.49;50.71;100751.16;6296054;28;20049;-70
2024/02/15 13:05:49;;;;;;;6.25;4.40;;;;;;;12.56;50.56;100742.03;6295969;28;20054;-71
2024/02/15 13:08:50;;;;;;;7.93;4.43;;;;;;;12.73;50.22;100746.28;6294746;28;20049;-70
2024/02/15 13:11:53;;;;;;;5.53;3.72;;;;;;;12.65;49.70;100738.88;6294504;28;20092;-71
2024/02/15 13:14:56;;;;;;;7.85;4.32;;;;;;;12.66;51.41;100739.69;6294766;28;20056;-70
2024/02/15 13:17:57;;;;;;;7.50;4.47;;;;;;;12.55;50.65;100735.09;6299234;28;20135;-70
2024/02/15 13:20:58;;;;;;;6.95;4.00;;;;;;;12.81;50.51;100730.94;6299488;28;20055;-70
2024/02/15 13:23:58;;;;;;;10.05;5.70;;;;;;;12.93;49.41;100737.25;6299587;28;20495;-71
2024/02/15 13:27:02;;;;;;;11.18;5.15;;;;;;;12.55;49.73;100729.88;6299640;28;20076;-70
2024/02/15 13:30:09;;;;;;;7.35;4.25;;;;;;;12.49;51.00;100728.44;6300393;28;20453;-71
2024/02/15 13:33:10;;;;;;;7.57;4.00;;;;;;;12.01;49.31;100732.09;6299493;28;20049;-70
2024/02/15 13:36:12;;;;;;;7.63;4.60;;;;;;;12.43;51.00;100730.56;6300472;28;20049;-70
2024/02/15 13:39:16;;;;;;;8.30;4.43;;;;;;;12.52;50.99;100726.56;6299074;28;20084;-70
2024/02/15 13:42:17;;;;;;;10.02;4.50;;;;;;;12.75;49.75;100733.09;6299087;28;20136;-70
2024/02/15 13:45:19;;;;;;;12.45;4.68;;;;;;;12.63;49.79;100716.34;6298923;28;20411;-71
2024/02/15 13:48:20;;;;;;;13.25;4.80;;;;;;;12.57;51.17;100716.69;6300223;28;20058;-70
2024/02/15 13:51:21;;;;;;;7.82;4.50;;;;;;;12.09;51.18;100711.59;6298654;28;20511;-76
2024/02/15 13:54:22;;;;;;;7.90;4.30;;;;;;;11.95;52.46;100706.31;6300151;28;20109;-75
2024/02/15 13:57:26;;;;;;;6.75;4.13;;;;;;;12.13;51.74;100715.72;6299897;28;20059;-76
2024/02/15 14:00:33;;;;;;;13.15;4.57;;;;;;;12.45;50.79;100711.22;6298749;28;20052;-76
2024/02/15 14:03:33;;;;;;;7.00;4.35;;;;;;;12.52;51.44;100709.13;6298590;28;20556;-70
2024/02/15 14:06:36;;;;;;;8.57;4.20;;;;;;;12.54;51.41;100715.09;6298454;28;20087;-70
2024/02/15 14:09:37;;;;;;;9.05;4.80;;;;;;;12.32;51.48;100702.41;6299493;28;20479;-70
2024/02/15 14:12:38;;;;;;;10.70;4.82;;;;;;;12.13;52.40;100705.25;6298409;28;20048;-71
2024/02/15 14:15:40;;;;;;;8.55;4.75;;;;;;;11.95;52.67;100701.06;6298282;28;20510;-71
2024/02/15 14:18:44;;;;;;;10.73;5.10;;;;;;;11.78;53.41;100699.38;6298102;28;20048;-71
2024/02/15 14:21:45;;;;;;;9.32;4.60;;;;;;;11.39;52.89;100705.84;6299461;28;20131;-71
2024/02/15 14:24:46;;;;;;;7.32;4.88;;;;;;;11.83;53.66;100697.34;6299235;28;20156;-71